createdAt,value
2017-09-15T00:02:03.417Z,65.5
2017-09-15T00:07:03.518Z,65.3
2017-09-15T00:12:03.505Z,65.2
2017-09-15T00:17:03.211Z,65.3
2017-09-15T00:22:03.747Z,65.4
2017-09-15T00:27:03.382Z,65.2
2017-09-15T00:32:03.204Z,50.0
2017-09-15T00:37:03.862Z,65.8
2017-09-15T00:42:03.528Z,66.1
2017-09-15T00:47:03.382Z,65.8
2017-09-15T00:52:03.268Z,65.6
2017-09-15T00:57:03.951Z,65.6
2017-09-15T01:02:03.714Z,65.8
2017-09-15T01:07:03.526Z,65.7
2017-09-15T01:12:03.240Z,65.9
2017-09-15T01:17:03.946Z,65.8
2017-09-15T01:22:03.826Z,66.0
2017-09-15T01:27:03.682Z,66.2
2017-09-15T01:32:03.279Z,66.2
2017-09-15T01:37:03.677Z,66.1
2017-09-15T01:42:03.535Z,66.1
2017-09-15T01:47:03.321Z,66.2
2017-09-15T01:52:03.441Z,66.3
2017-09-15T01:57:03.559Z,66.3
2017-09-15T02:02:03.439Z,66.3
2017-09-15T02:07:03.161Z,66.2
2017-09-15T02:12:03.151Z,66.2
2017-09-15T02:17:03.382Z,66.1
2017-09-15T02:22:03.098Z,66.1
2017-09-15T02:27:03.861Z,66.1
2017-09-15T02:32:03.696Z,66.0
2017-09-15T02:37:03.941Z,66.1
2017-09-15T02:42:03.208Z,66.0
2017-09-15T02:47:03.621Z,66.0
2017-09-15T02:52:03.859Z,66.1
2017-09-15T02:57:03.194Z,66.0
2017-09-15T03:02:03.576Z,66.4
2017-09-15T03:07:04.028Z,66.2
2017-09-15T03:12:03.421Z,66.4
2017-09-15T03:17:03.742Z,66.4
2017-09-15T03:22:03.069Z,66.4
2017-09-15T03:27:03.454Z,66.4
2017-09-15T03:32:03.669Z,66.3
2017-09-15T03:37:03.031Z,66.2
2017-09-15T03:42:03.389Z,66.4
2017-09-15T03:47:03.581Z,66.0
2017-09-15T03:52:03.877Z,66.1
2017-09-15T03:57:03.190Z,66.0
2017-09-15T04:02:03.529Z,66.1
2017-09-15T04:07:03.923Z,65.9
2017-09-15T04:12:03.446Z,66.0
2017-09-15T04:17:04.058Z,66.1
2017-09-15T04:22:03.186Z,66.3
2017-09-15T04:27:03.541Z,66.2
2017-09-15T04:32:18.045Z,66.2
2017-09-15T04:37:03.360Z,66.5
2017-09-15T04:42:03.871Z,66.2
2017-09-15T04:47:25.084Z,66.3
2017-09-15T04:52:03.495Z,66.2
2017-09-15T04:57:03.347Z,66.2
2017-09-15T05:02:23.998Z,66.0
2017-09-15T05:07:03.384Z,66.3
2017-09-15T05:12:03.810Z,66.1
2017-09-15T05:17:28.271Z,65.9
2017-09-15T05:22:03.800Z,65.9
2017-09-15T05:27:03.184Z,65.7
2017-09-15T05:32:26.163Z,65.7
2017-09-15T05:37:03.978Z,65.4
2017-09-15T05:42:03.504Z,64.8
2017-09-15T05:47:22.396Z,64.4
2017-09-15T05:52:03.311Z,64.2
2017-09-15T05:57:03.657Z,64.2
2017-09-15T06:02:19.866Z,63.8
2017-09-15T06:07:03.609Z,64.1
2017-09-15T06:12:03.290Z,63.8
2017-09-15T06:17:24.525Z,63.6
2017-09-15T06:22:03.264Z,63.5
2017-09-15T06:27:03.759Z,63.7
2017-09-15T06:32:27.736Z,63.4
2017-09-15T06:37:03.952Z,63.1
2017-09-15T06:42:03.385Z,63.3
2017-09-15T06:47:24.453Z,63.1
2017-09-15T06:52:03.611Z,62.9
2017-09-15T06:57:03.046Z,62.9
2017-09-15T07:02:28.013Z,63.0
2017-09-15T07:07:03.853Z,63.3
2017-09-15T07:12:03.531Z,63.2
2017-09-15T07:17:24.335Z,63.7
2017-09-15T07:22:03.066Z,63.7
2017-09-15T07:27:03.578Z,63.7
2017-09-15T07:32:25.912Z,63.1
2017-09-15T07:37:03.527Z,63.1
2017-09-15T07:42:03.941Z,63.2
2017-09-15T07:47:36.770Z,62.9
2017-09-15T07:52:03.662Z,62.8
2017-09-15T07:57:03.156Z,63.2
2017-09-15T08:02:25.399Z,63.4
2017-09-15T08:07:03.733Z,63.7
2017-09-15T08:12:03.258Z,63.7
2017-09-15T08:17:24.910Z,63.8
2017-09-15T08:22:03.232Z,63.8
2017-09-15T08:27:03.753Z,63.8
2017-09-15T08:32:26.958Z,63.7
2017-09-15T08:37:03.747Z,63.7
2017-09-15T08:42:03.756Z,64.1
2017-09-15T08:47:23.696Z,63.7
2017-09-15T08:52:02.858Z,63.7
2017-09-15T08:57:03.169Z,63.5
2017-09-15T09:02:31.864Z,64.1
2017-09-15T09:07:03.298Z,64.9
2017-09-15T09:12:03.919Z,64.9
2017-09-15T09:17:28.382Z,65.0
2017-09-15T09:22:03.429Z,63.7
2017-09-15T09:27:03.980Z,63.2
2017-09-15T09:32:23.648Z,62.5
2017-09-15T09:37:03.553Z,61.8
2017-09-15T09:42:03.255Z,62.8
2017-09-15T09:47:28.383Z,62.8
2017-09-15T09:52:03.475Z,62.7
2017-09-15T09:57:03.846Z,62.7
2017-09-15T10:02:27.875Z,63.7
2017-09-15T10:07:03.592Z,63.6
2017-09-15T10:12:03.320Z,64.4
2017-09-15T10:17:24.196Z,64.6
2017-09-15T10:22:03.415Z,64.4
2017-09-15T10:27:03.796Z,64.7
2017-09-15T10:32:23.368Z,65.0
2017-09-15T10:37:03.148Z,64.6
2017-09-15T10:42:03.708Z,63.7
2017-09-15T10:47:28.327Z,63.7
2017-09-15T10:52:03.410Z,63.4
2017-09-15T10:57:03.097Z,62.4
2017-09-15T11:02:25.526Z,63.5
2017-09-15T11:07:03.160Z,63.5
2017-09-15T11:12:03.805Z,63.8
2017-09-15T11:17:25.560Z,63.6
2017-09-15T11:22:03.058Z,62.9
2017-09-15T11:27:03.617Z,62.9
2017-09-15T11:32:23.320Z,62.6
2017-09-15T11:37:03.887Z,63.7
2017-09-15T11:42:03.552Z,63.7
2017-09-15T11:47:24.301Z,63.4
2017-09-15T11:52:03.600Z,63.9
2017-09-15T11:57:03.189Z,64.3
2017-09-15T12:02:28.441Z,64.1
2017-09-15T12:07:03.714Z,64.0
2017-09-15T12:12:03.205Z,64.0
2017-09-15T12:17:25.596Z,63.5
2017-09-15T12:22:03.467Z,62.8
2017-09-15T12:27:03.801Z,62.8
2017-09-15T12:32:23.079Z,62.0
2017-09-15T12:37:03.175Z,62.3
2017-09-15T12:42:03.587Z,63.6
2017-09-15T12:47:28.322Z,63.6
2017-09-15T12:52:03.735Z,63.6
2017-09-15T12:57:03.249Z,63.5
2017-09-15T13:02:27.225Z,64.0
2017-09-15T13:07:03.614Z,64.0
2017-09-15T13:12:03.402Z,63.7
2017-09-15T13:17:34.265Z,63.9
2017-09-15T13:22:03.839Z,64.6
2017-09-15T13:27:03.351Z,64.6
2017-09-15T13:32:25.334Z,65.0
2017-09-15T13:37:03.663Z,64.2
2017-09-15T13:42:03.152Z,63.6
2017-09-15T13:47:28.321Z,64.7
2017-09-15T13:52:03.563Z,64.2
2017-09-15T13:57:03.676Z,63.9
2017-09-15T14:02:27.318Z,63.8
2017-09-15T14:07:03.666Z,63.9
2017-09-15T14:12:03.330Z,63.4
2017-09-15T14:17:24.113Z,63.4
2017-09-15T14:22:03.672Z,63.9
2017-09-15T14:27:03.195Z,63.8
2017-09-15T14:32:28.154Z,63.1
2017-09-15T14:37:03.074Z,61.0
2017-09-15T14:42:03.714Z,60.8
2017-09-15T14:47:23.383Z,54.8
2017-09-15T14:52:03.756Z,48.7
2017-09-15T14:57:03.225Z,45.2
2017-09-15T15:02:21.829Z,45.1
2017-09-15T15:07:03.572Z,42.9
2017-09-15T15:12:03.135Z,43.0
2017-09-15T15:17:28.722Z,43.0
2017-09-15T15:22:03.316Z,42.5
2017-09-15T15:27:03.791Z,43.4
2017-09-15T15:32:23.620Z,43.4
2017-09-15T15:37:03.337Z,42.7
2017-09-15T15:42:03.841Z,43.7
2017-09-15T15:47:23.741Z,43.7
2017-09-15T15:52:03.092Z,44.6
2017-09-15T15:57:03.501Z,44.5
2017-09-15T16:02:22.805Z,44.4
2017-09-15T16:07:03.350Z,44.4
2017-09-15T16:12:03.845Z,44.7
2017-09-15T16:17:24.981Z,44.7
2017-09-15T16:22:03.410Z,56.0
2017-09-15T16:27:03.747Z,56.0
2017-09-15T16:32:23.729Z,61.1
2017-09-15T16:37:03.745Z,60.5
2017-09-15T16:42:03.085Z,60.4
2017-09-15T16:47:22.134Z,62.9
2017-09-15T16:52:03.905Z,61.2
2017-09-15T16:57:03.350Z,61.2
2017-09-15T17:02:28.516Z,61.0
2017-09-15T17:07:03.821Z,60.4
2017-09-15T17:12:03.494Z,60.3
2017-09-15T17:17:22.594Z,57.9
2017-09-15T17:22:03.229Z,57.8
2017-09-15T17:27:03.698Z,56.9
2017-09-15T17:32:26.362Z,59.6
2017-09-15T17:37:03.563Z,61.8
2017-09-15T17:42:03.488Z,63.0
2017-09-15T17:47:24.264Z,63.4
2017-09-15T17:52:03.839Z,63.6
2017-09-15T17:57:03.260Z,63.5
2017-09-15T18:02:24.616Z,63.5
2017-09-15T18:07:03.809Z,63.8
2017-09-15T18:12:03.380Z,63.9
2017-09-15T18:17:10.729Z,63.6
2017-09-15T18:22:03.281Z,63.6
2017-09-15T18:27:03.538Z,63.7
2017-09-15T18:32:04.744Z,63.2
2017-09-15T18:37:03.355Z,63.2
2017-09-15T18:42:03.590Z,63.4
2017-09-15T18:47:03.925Z,63.4
2017-09-15T18:52:03.276Z,63.3
2017-09-15T18:57:03.575Z,62.8
2017-09-15T19:02:03.903Z,62.5
2017-09-15T19:07:03.248Z,62.4
2017-09-15T19:12:03.709Z,62.4
2017-09-15T19:17:04.032Z,62.6
2017-09-15T19:22:03.416Z,62.7
2017-09-15T19:27:03.695Z,62.4
2017-09-15T19:32:04.027Z,62.4
2017-09-15T19:37:03.364Z,62.6
2017-09-15T19:42:03.558Z,62.4
2017-09-15T19:47:03.770Z,62.4
2017-09-15T19:52:03.205Z,62.2
2017-09-15T19:57:03.464Z,62.6
2017-09-15T20:02:03.749Z,62.2
2017-09-15T20:07:03.282Z,61.8
2017-09-15T20:12:03.688Z,61.8
2017-09-15T20:17:04.053Z,62.0
2017-09-15T20:22:03.477Z,62.2
2017-09-15T20:27:03.716Z,62.2
2017-09-15T20:32:03.112Z,62.2
2017-09-15T20:37:03.436Z,62.2
2017-09-15T20:42:03.597Z,62.2
2017-09-15T20:47:03.987Z,62.2
2017-09-15T20:52:03.274Z,62.2
2017-09-15T20:57:03.537Z,62.3
2017-09-15T21:02:03.867Z,62.2
2017-09-15T21:07:03.376Z,62.4
2017-09-15T21:12:03.707Z,62.3
2017-09-15T21:17:04.075Z,62.4
2017-09-15T21:22:03.479Z,62.3
2017-09-15T21:27:03.695Z,62.5
2017-09-15T21:32:03.990Z,62.1
2017-09-15T21:37:03.366Z,62.1
2017-09-15T21:42:03.608Z,62.1
2017-09-15T21:47:03.878Z,62.0
2017-09-15T21:52:03.222Z,62.0
2017-09-15T21:57:03.483Z,61.9
2017-09-15T22:02:03.864Z,62.1
2017-09-15T22:07:03.748Z,61.9
2017-09-15T22:12:03.710Z,61.9
2017-09-15T22:22:04.067Z,61.9
2017-09-15T22:27:03.178Z,62.4
2017-09-15T22:32:03.795Z,61.6
2017-09-15T22:37:03.042Z,61.5
2017-09-15T22:42:03.669Z,61.1
2017-09-15T22:47:03.572Z,61.0
2017-09-15T22:52:03.435Z,61.0
2017-09-15T22:57:03.319Z,61.0
2017-09-15T23:02:04.107Z,61.4
2017-09-15T23:07:03.438Z,61.1
2017-09-15T23:12:03.589Z,61.1
2017-09-15T23:17:03.666Z,61.1
2017-09-15T23:22:03.349Z,60.9
2017-09-15T23:27:03.233Z,60.8
2017-09-15T23:32:03.952Z,60.6
2017-09-15T23:37:03.678Z,60.8
2017-09-15T23:42:03.474Z,60.8
2017-09-15T23:47:03.281Z,60.9
2017-09-15T23:52:03.181Z,60.7
2017-09-15T23:57:03.852Z,60.8
